Time;durP1;ratioP1;P1;durP2;ratioP2;P2;SDS_P1;SDS_P2;PMS_P1;PMS_P2;Temp;Humidity;BMP_temperature;BMP_pressure;BME280_temperature;BME280_humidity;BME280_pressure;Samples;Min_cycle;Max_cycle;Signal;HPM_P1;HPM_P2
2023/09/23 00:00:29;;;;;;;;;;;;;;;-146.25;100.00;52258.72;2096909;28;20016;-65
2023/09/23 00:01:30;;;;;;;;;;;;;;;-146.25;100.00;52311.44;2096705;28;34821;-64
2023/09/23 00:02:35;;;;;;;;;;;;;;;-146.25;100.00;52319.53;2097004;28;20054;-64
2023/09/23 00:03:37;;;;;;;;;;;;;;;-146.25;100.00;52272.91;2096334;28;36842;-63
2023/09/23 00:04:39;;;;;;;;;;;;;;;-146.25;100.00;52281.00;2096704;28;27564;-63
2023/09/23 00:05:43;;;;;;;;;;;;;;;-146.25;100.00;52305.34;2097013;28;35080;-64
2023/09/23 00:06:49;;;;;;;;;;;;;;;-146.25;100.00;52321.56;2104405;28;19929;-63
2023/09/23 00:07:52;;;;;;;;;;;;;;;-146.25;100.00;52266.81;2104192;28;26966;-64
2023/09/23 00:08:55;;;;;;;;;;;;;;;-146.25;100.00;52268.84;2096170;28;38359;-64
2023/09/23 00:09:58;;;;;;;;;;;;;;;-146.25;100.00;52303.31;2096926;28;19932;-64
2023/09/23 00:10:59;;;;;;;;;;;;;;;-146.25;100.00;52299.25;2096352;28;38251;-64
2023/09/23 00:12:01;;;;;;;;;;;;;;;-146.25;100.00;52274.94;2096691;28;22302;-64
2023/09/23 00:13:03;;;;;;;;;;;;;;;-146.25;100.00;52319.53;2096656;28;24939;-64
2023/09/23 00:14:05;;;;;;;;;;;;;;;-146.25;100.00;52258.72;2096545;28;38823;-64
2023/09/23 00:15:10;;;;;;;;;;;;;;;-146.25;100.00;52309.41;2095233;28;36761;-63
2023/09/23 00:16:14;;;;;;;;;;;;;;;-146.25;100.00;52309.41;2095674;28;34338;-64
2023/09/23 00:17:16;;;;;;;;;;;;;;;-146.25;100.00;52327.66;2096159;28;37828;-64
2023/09/23 00:18:18;;;;;;;;;;;;;;;-146.25;100.00;52297.22;2096842;28;24751;-64
2023/09/23 00:19:19;;;;;;;;;;;;;;;-146.25;100.00;52327.66;2097298;28;38935;-63
2023/09/23 00:20:22;;;;;;;;;;;;;;;-146.25;100.00;52313.44;2097766;28;35638;-64
2023/09/23 00:21:23;;;;;;;;;;;;;;;-146.25;100.00;52315.47;2097825;28;33948;-63
2023/09/23 00:22:25;;;;;;;;;;;;;;;-146.25;100.00;52293.19;2098059;28;35926;-64
2023/09/23 00:23:28;;;;;;;;;;;;;;;-146.25;100.00;52291.16;2097534;28;35967;-63
2023/09/23 00:24:30;;;;;;;;;;;;;;;-146.25;100.00;52329.66;2098096;28;34903;-64
2023/09/23 00:25:33;;;;;;;;;;;;;;;-146.25;100.00;52303.31;2097510;28;38489;-64
2023/09/23 00:26:35;;;;;;;;;;;;;;;-146.25;100.00;52291.16;2098627;28;19917;-64
2023/09/23 00:27:39;;;;;;;;;;;;;;;-146.25;100.00;52256.69;2096811;28;36255;-64
2023/09/23 00:28:40;;;;;;;;;;;;;;;-146.25;100.00;52281.00;2098802;28;28718;-64
2023/09/23 00:29:44;;;;;;;;;;;;;;;-146.25;100.00;52295.19;2105279;28;31348;-64
2023/09/23 00:30:46;;;;;;;;;;;;;;;-146.25;100.00;52305.34;2105626;28;30972;-64
2023/09/23 00:31:48;;;;;;;;;;;;;;;-146.25;100.00;52295.19;2097483;28;24214;-64
2023/09/23 00:32:50;;;;;;;;;;;;;;;-146.25;100.00;52291.16;2098026;28;19929;-63
2023/09/23 00:33:52;;;;;;;;;;;;;;;-146.25;100.00;52313.44;2105481;28;31256;-64
2023/09/23 00:34:54;;;;;;;;;;;;;;;-146.25;100.00;52272.91;2098667;28;19959;-64
2023/09/23 00:35:56;;;;;;;;;;;;;;;-146.25;100.00;52283.03;2097701;28;33237;-64
2023/09/23 00:36:57;;;;;;;;;;;;;;;-146.25;100.00;52299.25;2097808;28;22512;-63
2023/09/23 00:38:02;;;;;;;;;;;;;;;-146.25;100.00;52272.91;2097332;28;20802;-64
2023/09/23 00:39:06;;;;;;;;;;;;;;;-146.25;100.00;52287.09;2089115;28;34591;-64
2023/09/23 00:40:16;;;;;;;;;;;;;;;-146.25;100.00;52287.09;2097041;28;31573;-64
2023/09/23 00:41:19;;;;;;;;;;;;;;;-146.25;100.00;52289.13;2098823;28;19932;-63
2023/09/23 00:42:21;;;;;;;;;;;;;;;-146.25;100.00;52331.69;2105067;28;28172;-64
2023/09/23 00:43:23;;;;;;;;;;;;;;;-146.25;100.00;52299.25;2096955;28;32923;-64
2023/09/23 00:44:24;;;;;;;;;;;;;;;-146.25;100.00;52293.19;2097427;28;24634;-64
2023/09/23 00:45:29;;;;;;;;;;;;;;;-146.25;100.00;52297.22;2098325;28;25556;-64
2023/09/23 00:46:31;;;;;;;;;;;;;;;-146.25;100.00;52315.47;2097660;28;26240;-64
2023/09/23 00:47:33;;;;;;;;;;;;;;;-146.25;100.00;52295.19;2096891;28;26442;-63
2023/09/23 00:48:39;;;;;;;;;;;;;;;-146.25;100.00;52291.16;2097366;28;19924;-64
2023/09/23 00:49:45;;;;;;;;;;;;;;;-146.25;100.00;52262.75;2097750;28;35332;-64
2023/09/23 00:50:47;;;;;;;;;;;;;;;-146.25;100.00;52319.53;2098319;28;36003;-64
2023/09/23 00:51:51;;;;;;;;;;;;;;;-146.25;100.00;52329.66;2097824;28;31246;-64
2023/09/23 00:52:53;;;;;;;;;;;;;;;-146.25;100.00;52307.38;2097370;28;34710;-63
2023/09/23 00:53:59;;;;;;;;;;;;;;;-146.25;100.00;52276.97;2097372;28;30617;-64
2023/09/23 00:55:01;;;;;;;;;;;;;;;-146.25;100.00;52339.81;2097517;28;32712;-64
2023/09/23 00:56:03;;;;;;;;;;;;;;;-146.25;100.00;52309.41;2105522;28;27986;-64
2023/09/23 00:57:08;;;;;;;;;;;;;;;-146.25;100.00;52291.16;2097369;28;31344;-64
2023/09/23 00:58:16;;;;;;;;;;;;;;;-146.25;100.00;52293.19;2097908;28;34075;-64
2023/09/23 00:59:17;;;;;;;;;;;;;;;-146.25;100.00;52287.09;2097735;28;25083;-64
2023/09/23 01:00:27;;;;;;;;;;;;;;;-146.25;100.00;52301.28;2098044;28;30385;-64
2023/09/23 01:01:28;;;;;;;;;;;;;;;-146.25;100.00;52274.94;2097915;28;29018;-64
2023/09/23 01:02:30;;;;;;;;;;;;;;;-146.25;100.00;52270.88;2098078;28;28288;-64
2023/09/23 01:03:33;;;;;;;;;;;;;;;-146.25;100.00;52303.31;2098032;28;20794;-64
2023/09/23 01:04:37;;;;;;;;;;;;;;;-146.25;100.00;52295.19;2098514;28;20813;-65
2023/09/23 01:05:41;;;;;;;;;;;;;;;-146.25;100.00;52323.59;2097550;28;29923;-64
2023/09/23 01:06:43;;;;;;;;;;;;;;;-146.25;100.00;52321.56;2097818;28;25989;-64
2023/09/23 01:07:48;;;;;;;;;;;;;;;-146.25;100.00;52291.16;2098026;28;21150;-64
2023/09/23 01:08:51;;;;;;;;;;;;;;;-146.25;100.00;52325.63;2097886;28;34136;-65
2023/09/23 01:09:53;;;;;;;;;;;;;;;-146.25;100.00;52297.22;2096983;28;27969;-64
2023/09/23 01:10:55;;;;;;;;;;;;;;;-146.25;100.00;52281.00;2105457;28;30653;-65
2023/09/23 01:11:56;;;;;;;;;;;;;;;-146.25;100.00;52354.00;2096526;28;34958;-64
2023/09/23 01:12:58;;;;;;;;;;;;;;;-146.25;100.00;52278.97;2097799;28;32399;-64
2023/09/23 01:14:02;;;;;;;;;;;;;;;-146.25;100.00;52297.22;2097343;28;19928;-64
2023/09/23 01:15:06;;;;;;;;;;;;;;;-146.25;100.00;52303.31;2097264;28;24399;-64
2023/09/23 01:16:12;;;;;;;;;;;;;;;-146.25;100.00;52270.88;2097383;28;19931;-64
2023/09/23 01:17:15;;;;;;;;;;;;;;;-146.25;100.00;52327.66;2097995;28;32880;-64
2023/09/23 01:18:20;;;;;;;;;;;;;;;-146.25;100.00;52264.78;2097190;28;20690;-64
2023/09/23 01:19:26;;;;;;;;;;;;;;;-146.25;100.00;52281.00;2096758;28;34794;-64
2023/09/23 01:20:27;;;;;;;;;;;;;;;-146.25;100.00;52317.50;2097238;28;30119;-64
2023/09/23 01:21:29;;;;;;;;;;;;;;;-146.25;100.00;52311.44;2098185;28;19998;-63
2023/09/23 01:22:34;;;;;;;;;;;;;;;-146.25;100.00;52285.06;2105440;28;25364;-63
2023/09/23 01:23:38;;;;;;;;;;;;;;;-146.25;100.00;52295.19;2104795;28;33250;-64
2023/09/23 01:24:40;;;;;;;;;;;;;;;-146.25;100.00;52329.66;2096849;28;33386;-64
2023/09/23 01:25:42;;;;;;;;;;;;;;;-146.25;100.00;52295.19;2097300;28;19980;-63
2023/09/23 01:26:51;;;;;;;;;;;;;;;-146.25;100.00;52323.59;2105058;28;32336;-64
2023/09/23 01:27:53;;;;;;;;;;;;;;;-146.25;100.00;52329.66;2097011;28;20006;-63
2023/09/23 01:28:54;;;;;;;;;;;;;;;-146.25;100.00;52311.44;2097233;28;26866;-63
2023/09/23 01:30:03;;;;;;;;;;;;;;;-146.25;100.00;52341.84;2096258;28;34670;-64
2023/09/23 01:31:05;;;;;;;;;;;;;;;-146.25;100.00;52283.03;2097701;28;24088;-64
2023/09/23 01:32:22;;;;;;;;;;;;;;;-146.25;100.00;52283.03;2096605;28;31354;-64
2023/09/23 01:33:24;;;;;;;;;;;;;;;-146.25;100.00;52325.63;2097685;28;27791;-64
2023/09/23 01:34:27;;;;;;;;;;;;;;;-146.25;100.00;52258.72;2096987;28;25149;-64
2023/09/23 01:35:28;;;;;;;;;;;;;;;-146.25;100.00;52307.38;2097622;28;19931;-65
2023/09/23 01:36:31;;;;;;;;;;;;;;;-146.25;100.00;52276.97;2097860;28;26789;-64
2023/09/23 01:37:34;;;;;;;;;;;;;;;-146.25;100.00;52274.94;2096748;28;30117;-64
2023/09/23 01:38:37;;;;;;;;;;;;;;;-146.25;100.00;52331.69;2097124;28;19983;-64
2023/09/23 01:39:41;;;;;;;;;;;;;;;-146.25;100.00;52262.75;2098045;28;24669;-64
2023/09/23 01:40:43;;;;;;;;;;;;;;;-146.25;100.00;52299.25;2096834;28;31594;-64
2023/09/23 01:41:45;;;;;;;;;;;;;;;-146.25;100.00;52289.13;2097304;28;22514;-63
2023/09/23 01:42:51;;;;;;;;;;;;;;;-146.25;100.00;52321.56;2096673;28;27998;-64
2023/09/23 01:43:54;;;;;;;;;;;;;;;-146.25;100.00;52270.88;2097455;28;19932;-63
2023/09/23 01:44:57;;;;;;;;;;;;;;;-146.25;100.00;52315.47;2096498;28;32135;-64
2023/09/23 01:46:03;;;;;;;;;;;;;;;-146.25;100.00;52287.09;2097326;28;31575;-65
2023/09/23 01:47:05;;;;;;;;;;;;;;;-146.25;100.00;52289.13;2097435;28;30684;-64
2023/09/23 01:48:08;;;;;;;;;;;;;;;-146.25;100.00;52303.31;2096407;28;36255;-64
2023/09/23 01:49:11;;;;;;;;;;;;;;;-146.25;100.00;52323.59;2096780;28;19929;-64
2023/09/23 01:50:13;;;;;;;;;;;;;;;-146.25;100.00;52303.31;2097056;28;31112;-65
2023/09/23 01:51:17;;;;;;;;;;;;;;;-146.25;100.00;52303.31;2097531;28;30701;-65
2023/09/23 01:52:19;;;;;;;;;;;;;;;-146.25;100.00;52258.72;2097405;28;35456;-65
2023/09/23 01:53:21;;;;;;;;;;;;;;;-146.25;100.00;52321.56;2097331;28;24823;-64
2023/09/23 01:54:24;;;;;;;;;;;;;;;-146.25;100.00;52287.09;2097254;28;19925;-64
2023/09/23 01:55:28;;;;;;;;;;;;;;;-146.25;100.00;52262.75;2097525;28;19995;-64
2023/09/23 01:56:34;;;;;;;;;;;;;;;-146.25;100.00;52295.19;2097023;28;19933;-64
2023/09/23 01:57:35;;;;;;;;;;;;;;;-146.25;100.00;52331.69;2097570;28;20084;-64
2023/09/23 01:58:37;;;;;;;;;;;;;;;-146.25;100.00;52291.16;2097288;28;19994;-64
2023/09/23 01:59:40;;;;;;;;;;;;;;;-146.25;100.00;52272.91;2096796;28;24476;-64
2023/09/23 02:00:42;;;;;;;;;;;;;;;-146.25;100.00;52319.53;2096172;28;19975;-64
2023/09/23 02:01:46;;;;;;;;;;;;;;;-146.25;100.00;52311.44;2097049;28;20746;-64
2023/09/23 02:02:49;;;;;;;;;;;;;;;-146.25;100.00;52315.47;2097499;28;20787;-65
2023/09/23 02:03:51;;;;;;;;;;;;;;;-146.25;100.00;52311.44;2097667;28;21073;-63
2023/09/23 02:04:53;;;;;;;;;;;;;;;-146.25;100.00;52274.94;2097257;28;32338;-64
2023/09/23 02:05:55;;;;;;;;;;;;;;;-146.25;100.00;52319.53;2105571;28;19924;-64
2023/09/23 02:06:57;;;;;;;;;;;;;;;-146.25;100.00;52285.06;2095752;28;25808;-65
2023/09/23 02:07:58;;;;;;;;;;;;;;;-146.25;100.00;52315.47;2096561;28;20055;-64
2023/09/23 02:09:00;;;;;;;;;;;;;;;-146.25;100.00;52291.16;2096598;28;30662;-64
2023/09/23 02:10:08;;;;;;;;;;;;;;;-146.25;100.00;52270.88;2097020;28;19928;-65
2023/09/23 02:11:10;;;;;;;;;;;;;;;-146.25;100.00;52319.53;2097958;28;20803;-64
2023/09/23 02:12:14;;;;;;;;;;;;;;;-146.25;100.00;52293.19;2096847;28;20047;-63
2023/09/23 02:13:16;;;;;;;;;;;;;;;-146.25;100.00;52313.44;2096781;28;29009;-64
2023/09/23 02:14:17;;;;;;;;;;;;;;;-146.25;100.00;52319.53;2097476;28;20780;-64
2023/09/23 02:15:20;;;;;;;;;;;;;;;-146.25;100.00;52295.19;2096807;28;20842;-66
2023/09/23 02:16:21;;;;;;;;;;;;;;;-146.25;100.00;52264.78;2096623;28;25938;-64
2023/09/23 02:17:23;;;;;;;;;;;;;;;-146.25;100.00;52295.19;2097204;28;26956;-65
2023/09/23 02:18:28;;;;;;;;;;;;;;;-146.25;100.00;52313.44;2097452;28;25564;-64
2023/09/23 02:19:29;;;;;;;;;;;;;;;-146.25;100.00;52287.09;2096531;28;32579;-65
2023/09/23 02:20:32;;;;;;;;;;;;;;;-146.25;100.00;52319.53;2097361;28;20855;-65
2023/09/23 02:21:34;;;;;;;;;;;;;;;-146.25;100.00;52299.25;2096775;28;38845;-65
2023/09/23 02:22:36;;;;;;;;;;;;;;;-146.25;100.00;52319.53;2097465;28;21674;-65
2023/09/23 02:23:37;;;;;;;;;;;;;;;-146.25;100.00;52299.25;2097169;28;26459;-65
2023/09/23 02:24:41;;;;;;;;;;;;;;;-146.25;100.00;52266.81;2097294;28;20002;-65
2023/09/23 02:25:43;;;;;;;;;;;;;;;-146.25;100.00;52315.47;2096700;28;29510;-65
2023/09/23 02:26:45;;;;;;;;;;;;;;;-146.25;100.00;52301.28;2096831;28;34648;-65
2023/09/23 02:27:49;;;;;;;;;;;;;;;-146.25;100.00;52305.34;2097170;28;20832;-65
2023/09/23 02:28:51;;;;;;;;;;;;;;;-146.25;100.00;52297.22;2097444;28;19925;-66
2023/09/23 02:29:53;;;;;;;;;;;;;;;-146.25;100.00;52339.81;2097342;28;19971;-63
2023/09/23 02:30:55;;;;;;;;;;;;;;;-146.25;100.00;52329.66;2097010;28;33958;-64
2023/09/23 02:31:56;;;;;;;;;;;;;;;-146.25;100.00;52305.34;2105261;28;34278;-65
2023/09/23 02:33:00;;;;;;;;;;;;;;;-146.25;100.00;52266.81;2104888;28;27057;-64
2023/09/23 02:34:02;;;;;;;;;;;;;;;-146.25;100.00;52317.50;2097525;28;19929;-64
2023/09/23 02:35:11;;;;;;;;;;;;;;;-146.25;100.00;52343.88;2096963;28;31946;-65
2023/09/23 02:36:14;;;;;;;;;;;;;;;-146.25;100.00;52331.69;2097792;28;20059;-65
2023/09/23 02:37:18;;;;;;;;;;;;;;;-146.25;100.00;52327.66;2097203;28;30294;-64
2023/09/23 02:38:21;;;;;;;;;;;;;;;-146.25;100.00;52311.44;2097177;28;30671;-65
2023/09/23 02:39:23;;;;;;;;;;;;;;;-146.25;100.00;52258.72;2104507;28;32088;-66
2023/09/23 02:40:27;;;;;;;;;;;;;;;-146.25;100.00;52283.03;2104639;28;29531;-65
2023/09/23 02:41:29;;;;;;;;;;;;;;;-146.25;100.00;52299.25;2096584;28;19924;-65
2023/09/23 02:42:31;;;;;;;;;;;;;;;-146.25;100.00;52351.97;2104768;28;19924;-65
2023/09/23 02:43:34;;;;;;;;;;;;;;;-146.25;100.00;52281.00;2096190;28;30412;-66
2023/09/23 02:44:38;;;;;;;;;;;;;;;-146.25;100.00;52287.09;2088888;28;19933;-66
2023/09/23 02:45:40;;;;;;;;;;;;;;;-146.25;100.00;52331.69;2096213;28;31800;-70
2023/09/23 02:46:43;;;;;;;;;;;;;;;-146.25;100.00;52291.16;2105304;28;19925;-69
2023/09/23 02:47:45;;;;;;;;;;;;;;;-146.25;100.00;52254.66;2096055;28;32513;-69
2023/09/23 02:48:47;;;;;;;;;;;;;;;-146.25;100.00;52345.91;2096205;28;31814;-69
2023/09/23 02:49:49;;;;;;;;;;;;;;;-146.25;100.00;52307.38;2095874;28;33658;-68
2023/09/23 02:50:51;;;;;;;;;;;;;;;-146.25;100.00;52301.28;2097112;28;30451;-68
2023/09/23 02:51:53;;;;;;;;;;;;;;;-146.25;100.00;52323.59;2096506;28;19929;-67
2023/09/23 02:52:55;;;;;;;;;;;;;;;-146.25;100.00;52317.50;2096799;28;20014;-68
2023/09/23 02:53:56;;;;;;;;;;;;;;;-146.25;100.00;52307.38;2096301;28;22538;-68
2023/09/23 02:54:58;;;;;;;;;;;;;;;-146.25;100.00;52276.97;2087937;28;28935;-67
2023/09/23 02:56:07;;;;;;;;;;;;;;;-146.25;100.00;52327.66;2088177;28;29573;-66
2023/09/23 02:57:12;;;;;;;;;;;;;;;-146.25;100.00;52305.34;2105290;28;26088;-66
2023/09/23 02:58:14;;;;;;;;;;;;;;;-146.25;100.00;52319.53;2095842;28;33542;-66
2023/09/23 02:59:21;;;;;;;;;;;;;;;-146.25;100.00;52283.03;2096397;28;35434;-65
2023/09/23 03:00:30;;;;;;;;;;;;;;;-146.25;100.00;52291.16;2095875;28;27845;-66
2023/09/23 03:01:33;;;;;;;;;;;;;;;-146.25;100.00;52313.44;2096238;28;30252;-67
2023/09/23 03:02:38;;;;;;;;;;;;;;;-146.25;100.00;52309.41;2096587;28;20074;-67
2023/09/23 03:03:40;;;;;;;;;;;;;;;-146.25;100.00;52295.19;2096989;28;36475;-67
2023/09/23 03:04:43;;;;;;;;;;;;;;;-146.25;100.00;52289.13;2097409;28;20729;-67
2023/09/23 03:05:54;;;;;;;;;;;;;;;-146.25;100.00;52289.13;2097528;28;29603;-67
2023/09/23 03:06:59;;;;;;;;;;;;;;;-146.25;100.00;52327.66;2097002;28;29533;-66
2023/09/23 03:08:01;;;;;;;;;;;;;;;-146.25;100.00;52335.75;2097013;28;27351;-65
2023/09/23 03:09:03;;;;;;;;;;;;;;;-146.25;100.00;52299.25;2095697;28;32101;-66
2023/09/23 03:10:12;;;;;;;;;;;;;;;-146.25;100.00;52321.56;2096637;28;27685;-67
2023/09/23 03:11:17;;;;;;;;;;;;;;;-146.25;100.00;52305.34;2096375;28;28239;-66
2023/09/23 03:12:19;;;;;;;;;;;;;;;-146.25;100.00;52311.44;2104455;28;32865;-66
2023/09/23 03:13:23;;;;;;;;;;;;;;;-146.25;100.00;52305.34;2104676;28;29942;-66
2023/09/23 03:14:30;;;;;;;;;;;;;;;-146.25;100.00;52299.25;2097030;28;29441;-66
2023/09/23 03:15:44;;;;;;;;;;;;;;;-146.25;100.00;52285.06;2096878;28;29883;-67
2023/09/23 03:16:51;;;;;;;;;;;;;;;-146.25;100.00;52274.94;2096794;28;32795;-66
2023/09/23 03:17:53;;;;;;;;;;;;;;;-146.25;100.00;52311.44;2097503;28;20376;-64
2023/09/23 03:19:10;;;;;;;;;;;;;;;-146.25;100.00;52291.16;2096767;28;33235;-65
2023/09/23 03:20:21;;;;;;;;;;;;;;;-146.25;100.00;52244.50;2104811;28;19955;-67
2023/09/23 03:21:23;;;;;;;;;;;;;;;-146.25;100.00;52313.44;2103295;28;19924;-65
2023/09/23 03:22:27;;;;;;;;;;;;;;;-146.25;100.00;52291.16;2096892;28;19929;-66
2023/09/23 03:23:28;;;;;;;;;;;;;;;-146.25;100.00;52270.88;2096609;28;19955;-65
2023/09/23 03:24:30;;;;;;;;;;;;;;;-146.25;100.00;52313.44;2104552;28;33976;-65
2023/09/23 03:25:32;;;;;;;;;;;;;;;-146.25;100.00;52321.56;2096167;28;23960;-65
2023/09/23 03:26:33;;;;;;;;;;;;;;;-146.25;100.00;52343.88;2096002;28;30172;-65
2023/09/23 03:27:39;;;;;;;;;;;;;;;-146.25;100.00;52319.53;2095634;28;30378;-65
2023/09/23 03:28:44;;;;;;;;;;;;;;;-146.25;100.00;52329.66;2097719;28;19921;-65
2023/09/23 03:29:49;;;;;;;;;;;;;;;-146.25;100.00;52319.53;2103236;28;37858;-65
2023/09/23 03:30:59;;;;;;;;;;;;;;;-146.25;100.00;52319.53;2097107;28;21895;-66
2023/09/23 03:32:00;;;;;;;;;;;;;;;-146.25;100.00;52278.97;2104767;28;20929;-65
2023/09/23 03:33:02;;;;;;;;;;;;;;;-146.25;100.00;52335.75;2096477;28;19932;-66
2023/09/23 03:34:05;;;;;;;;;;;;;;;-146.25;100.00;52313.44;2096392;28;19925;-65
2023/09/23 03:35:17;;;;;;;;;;;;;;;-146.25;100.00;52309.41;2096062;28;37144;-65
2023/09/23 03:36:20;;;;;;;;;;;;;;;-146.25;100.00;52270.88;2103210;28;28676;-64
2023/09/23 03:37:22;;;;;;;;;;;;;;;-146.25;100.00;52295.19;2096492;28;20915;-65
2023/09/23 03:38:24;;;;;;;;;;;;;;;-146.25;100.00;52287.09;2087053;28;35063;-65
2023/09/23 03:39:28;;;;;;;;;;;;;;;-146.25;100.00;52315.47;2096628;28;19939;-65
2023/09/23 03:40:31;;;;;;;;;;;;;;;-146.25;100.00;52295.19;2104741;28;20067;-66
2023/09/23 03:41:37;;;;;;;;;;;;;;;-146.25;100.00;52323.59;2104778;28;20005;-65
2023/09/23 03:42:39;;;;;;;;;;;;;;;-146.25;100.00;52321.56;2104282;28;22937;-65
2023/09/23 03:43:41;;;;;;;;;;;;;;;-146.25;100.00;52339.81;2096581;28;20049;-65
2023/09/23 03:44:43;;;;;;;;;;;;;;;-146.25;100.00;52289.13;2096566;28;19921;-65
2023/09/23 03:45:44;;;;;;;;;;;;;;;-146.25;100.00;52295.19;2104290;28;32088;-65
2023/09/23 03:46:47;;;;;;;;;;;;;;;-146.25;100.00;52319.53;2095860;28;30208;-65
2023/09/23 03:47:49;;;;;;;;;;;;;;;-146.25;100.00;52319.53;2096770;28;19925;-64
2023/09/23 03:48:51;;;;;;;;;;;;;;;-146.25;100.00;52313.44;2096203;28;23769;-65
2023/09/23 03:49:53;;;;;;;;;;;;;;;-146.25;100.00;52274.94;2096452;28;19932;-65
2023/09/23 03:50:55;;;;;;;;;;;;;;;-146.25;100.00;52307.38;2104744;28;20420;-65
2023/09/23 03:51:57;;;;;;;;;;;;;;;-146.25;100.00;52327.66;2098112;28;21801;-65
2023/09/23 03:53:01;;;;;;;;;;;;;;;-146.25;100.00;52297.22;2096291;28;19916;-64
2023/09/23 03:54:05;;;;;;;;;;;;;;;-146.25;100.00;52349.94;2096592;28;31190;-65
2023/09/23 03:55:08;;;;;;;;;;;;;;;-146.25;100.00;52299.25;2098554;28;20091;-65
2023/09/23 03:56:10;;;;;;;;;;;;;;;-146.25;100.00;52317.50;2094180;28;28199;-66
2023/09/23 03:57:11;;;;;;;;;;;;;;;-146.25;100.00;52305.34;2105922;28;19928;-66
2023/09/23 03:58:13;;;;;;;;;;;;;;;-146.25;100.00;52333.72;2096401;28;33626;-67
2023/09/23 03:59:15;;;;;;;;;;;;;;;-146.25;100.00;52341.84;2097409;28;34287;-65
2023/09/23 04:00:17;;;;;;;;;;;;;;;-146.25;100.00;52331.69;2106103;28;19920;-66
2023/09/23 04:01:19;;;;;;;;;;;;;;;-146.25;100.00;52323.59;2097626;28;21997;-66
2023/09/23 04:02:24;;;;;;;;;;;;;;;-146.25;100.00;52272.91;2098051;28;20001;-65
2023/09/23 04:03:26;;;;;;;;;;;;;;;-146.25;100.00;52337.78;2098509;28;22374;-65
2023/09/23 04:04:29;;;;;;;;;;;;;;;-146.25;100.00;52345.91;2097726;28;31372;-65
2023/09/23 04:05:31;;;;;;;;;;;;;;;-146.25;100.00;52319.53;2098658;28;20042;-66
2023/09/23 04:06:33;;;;;;;;;;;;;;;-146.25;100.00;52311.44;2097485;28;20047;-65
2023/09/23 04:07:40;;;;;;;;;;;;;;;-146.25;100.00;52315.47;2098145;28;20845;-65
2023/09/23 04:08:42;;;;;;;;;;;;;;;-146.25;100.00;52307.38;2105848;28;20702;-65
2023/09/23 04:09:43;;;;;;;;;;;;;;;-146.25;100.00;52327.66;2097885;28;35412;-66
2023/09/23 04:10:45;;;;;;;;;;;;;;;-146.25;100.00;52323.59;2098734;28;19928;-65
2023/09/23 04:11:46;;;;;;;;;;;;;;;-146.25;100.00;52309.41;2097832;28;37957;-65
2023/09/23 04:12:53;;;;;;;;;;;;;;;-146.25;100.00;52283.03;2098066;28;34083;-65
2023/09/23 04:13:54;;;;;;;;;;;;;;;-146.25;100.00;52339.81;2098744;28;34763;-65
2023/09/23 04:14:58;;;;;;;;;;;;;;;-146.25;100.00;52327.66;2097777;28;32063;-65
2023/09/23 04:16:00;;;;;;;;;;;;;;;-146.25;100.00;52281.00;2098149;28;34931;-66
2023/09/23 04:17:05;;;;;;;;;;;;;;;-146.25;100.00;52339.81;2097503;28;37785;-65
2023/09/23 04:18:06;;;;;;;;;;;;;;;-146.25;100.00;52315.47;2105475;28;40706;-65
2023/09/23 04:19:10;;;;;;;;;;;;;;;-146.25;100.00;52305.34;2105513;28;33705;-66
2023/09/23 04:20:14;;;;;;;;;;;;;;;-146.25;100.00;52321.56;2097860;28;35400;-65
2023/09/23 04:21:17;;;;;;;;;;;;;;;-146.25;100.00;52339.81;2098136;28;20005;-66
2023/09/23 04:22:21;;;;;;;;;;;;;;;-146.25;100.00;52343.88;2098052;28;37295;-66
2023/09/23 04:23:23;;;;;;;;;;;;;;;-146.25;100.00;52321.56;2097679;28;33480;-65
2023/09/23 04:24:25;;;;;;;;;;;;;;;-146.25;100.00;52291.16;2098204;28;34108;-65
2023/09/23 04:25:27;;;;;;;;;;;;;;;-146.25;100.00;52311.44;2097528;28;34891;-66
2023/09/23 04:26:28;;;;;;;;;;;;;;;-146.25;100.00;52319.53;2098535;28;19925;-66
2023/09/23 04:27:31;;;;;;;;;;;;;;;-146.25;100.00;52339.81;2097146;28;36849;-64
2023/09/23 04:28:35;;;;;;;;;;;;;;;-146.25;100.00;52266.81;2098065;28;35224;-66
2023/09/23 04:29:36;;;;;;;;;;;;;;;-146.25;100.00;52311.44;2097682;28;33772;-66
2023/09/23 04:30:40;;;;;;;;;;;;;;;-146.25;100.00;52323.59;2097655;28;37737;-65
2023/09/23 04:31:41;;;;;;;;;;;;;;;-146.25;100.00;52295.19;2098347;28;20841;-65
2023/09/23 04:32:43;;;;;;;;;;;;;;;-146.25;100.00;52341.84;2097942;28;34889;-65
2023/09/23 04:33:47;;;;;;;;;;;;;;;-146.25;100.00;52311.44;2097719;28;33789;-63
2023/09/23 04:34:49;;;;;;;;;;;;;;;-146.25;100.00;52287.09;2098431;28;19928;-65
2023/09/23 04:35:57;;;;;;;;;;;;;;;-146.25;100.00;52285.06;2098810;28;19962;-65
2023/09/23 04:36:59;;;;;;;;;;;;;;;-146.25;100.00;52343.88;2097623;28;37695;-63
2023/09/23 04:38:01;;;;;;;;;;;;;;;-146.25;100.00;52343.88;2098313;28;20821;-64
2023/09/23 04:39:05;;;;;;;;;;;;;;;-146.25;100.00;52317.50;2097948;28;38761;-65
2023/09/23 04:40:13;;;;;;;;;;;;;;;-146.25;100.00;52307.38;2097573;28;35121;-65
2023/09/23 04:41:15;;;;;;;;;;;;;;;-146.25;100.00;52307.38;2097796;28;33570;-64
2023/09/23 04:42:17;;;;;;;;;;;;;;;-146.25;100.00;52303.31;2097495;28;35316;-64
2023/09/23 04:43:25;;;;;;;;;;;;;;;-146.25;100.00;52305.34;2098480;28;19931;-65
2023/09/23 04:44:28;;;;;;;;;;;;;;;-146.25;100.00;52331.69;2098230;28;19980;-64
2023/09/23 04:45:30;;;;;;;;;;;;;;;-146.25;100.00;52337.78;2097890;28;32619;-63
2023/09/23 04:46:33;;;;;;;;;;;;;;;-146.25;100.00;52335.75;2097728;28;32932;-64
2023/09/23 04:47:35;;;;;;;;;;;;;;;-146.25;100.00;52262.75;2097136;28;35827;-65
2023/09/23 04:48:37;;;;;;;;;;;;;;;-146.25;100.00;52325.63;2097490;28;19925;-65
2023/09/23 04:49:40;;;;;;;;;;;;;;;-146.25;100.00;52321.56;2097572;28;36356;-65
2023/09/23 04:50:44;;;;;;;;;;;;;;;-146.25;100.00;52315.47;2097663;28;34812;-65
2023/09/23 04:51:47;;;;;;;;;;;;;;;-146.25;100.00;52333.72;2098519;28;20342;-64
2023/09/23 04:52:50;;;;;;;;;;;;;;;-146.25;100.00;52325.63;2097256;28;40373;-65
2023/09/23 04:53:52;;;;;;;;;;;;;;;-146.25;100.00;52339.81;2098340;28;20082;-63
2023/09/23 04:54:54;;;;;;;;;;;;;;;-146.25;100.00;52331.69;2096926;28;39465;-65
2023/09/23 04:55:58;;;;;;;;;;;;;;;-146.25;100.00;52343.88;2097748;28;37325;-65
2023/09/23 04:57:02;;;;;;;;;;;;;;;-146.25;100.00;52319.53;2098167;28;19928;-64
2023/09/23 04:58:06;;;;;;;;;;;;;;;-146.25;100.00;52323.59;2098671;28;20816;-64
2023/09/23 04:59:07;;;;;;;;;;;;;;;-146.25;100.00;52319.53;2097093;28;37304;-63
2023/09/23 05:00:10;;;;;;;;;;;;;;;-146.25;100.00;52319.53;2096737;28;36427;-64
2023/09/23 05:01:12;;;;;;;;;;;;;;;-146.25;100.00;52260.72;2097537;28;39116;-64
2023/09/23 05:02:17;;;;;;;;;;;;;;;-146.25;100.00;52305.34;2097936;28;19928;-66
2023/09/23 05:03:19;;;;;;;;;;;;;;;-146.25;100.00;52313.44;2097215;28;33707;-65
2023/09/23 05:04:22;;;;;;;;;;;;;;;-146.25;100.00;52303.31;2098077;28;19971;-65
2023/09/23 05:05:23;;;;;;;;;;;;;;;-146.25;100.00;52285.06;2097043;28;29603;-66
2023/09/23 05:06:25;;;;;;;;;;;;;;;-146.25;100.00;52315.47;2097726;28;34804;-66
2023/09/23 05:07:28;;;;;;;;;;;;;;;-146.25;100.00;52319.53;2097580;28;36373;-65
2023/09/23 05:08:31;;;;;;;;;;;;;;;-146.25;100.00;52362.13;2098248;28;19996;-67
2023/09/23 05:09:34;;;;;;;;;;;;;;;-146.25;100.00;52305.34;2097597;28;19929;-66
2023/09/23 05:10:39;;;;;;;;;;;;;;;-146.25;100.00;52317.50;2097126;28;31085;-65
2023/09/23 05:11:41;;;;;;;;;;;;;;;-146.25;100.00;52321.56;2097946;28;35912;-65
2023/09/23 05:12:45;;;;;;;;;;;;;;;-146.25;100.00;52325.63;2097685;28;35952;-65
2023/09/23 05:13:47;;;;;;;;;;;;;;;-146.25;100.00;52337.78;2098075;28;20644;-64
2023/09/23 05:14:48;;;;;;;;;;;;;;;-146.25;100.00;52335.75;2097379;28;33222;-65
2023/09/23 05:15:51;;;;;;;;;;;;;;;-146.25;100.00;52295.19;2097280;28;36146;-65
2023/09/23 05:16:53;;;;;;;;;;;;;;;-146.25;100.00;52297.22;2097543;28;32117;-66